createdAt,value
2019-03-31T00:00:08.134Z,49.04
2019-03-31T00:02:39.938Z,48.64
2019-03-31T00:05:09.427Z,48.62
2019-03-31T00:07:39.202Z,48.26
2019-03-31T00:10:09.030Z,48.30
2019-03-31T00:12:38.453Z,48.62
2019-03-31T00:15:08.485Z,49.27
2019-03-31T00:17:38.282Z,49.67
2019-03-31T00:20:08.276Z,50.07
2019-03-31T00:22:38.075Z,50.70
2019-03-31T00:25:07.957Z,51.04
2019-03-31T00:27:37.415Z,51.42
2019-03-31T00:30:07.638Z,52.01
2019-03-31T00:32:37.086Z,52.36
2019-03-31T00:35:06.558Z,52.74
2019-03-31T00:37:35.994Z,53.34
2019-03-31T00:40:06.748Z,53.65
2019-03-31T00:42:36.168Z,54.01
2019-03-31T00:45:07.279Z,54.68
2019-03-31T00:47:37.168Z,54.77
2019-03-31T00:50:07.111Z,54.92
2019-03-31T00:52:36.588Z,55.04
2019-03-31T00:55:07.035Z,55.20
2019-03-31T00:57:36.445Z,55.29
2019-03-31T01:00:11.232Z,55.47
2019-03-31T01:02:40.731Z,55.66
2019-03-31T01:05:10.316Z,55.61
2019-03-31T01:07:40.015Z,55.46
2019-03-31T01:10:10.219Z,55.32
2019-03-31T01:12:39.711Z,55.77
2019-03-31T01:15:12.932Z,55.79
2019-03-31T01:17:44.057Z,55.89
2019-03-31T01:20:13.621Z,55.79
2019-03-31T01:22:43.092Z,55.94
2019-03-31T01:25:12.831Z,55.95
2019-03-31T01:27:42.323Z,55.84
2019-03-31T01:30:13.232Z,55.92
2019-03-31T01:32:42.850Z,56.02
2019-03-31T01:35:12.409Z,56.18
2019-03-31T01:37:41.914Z,56.25
2019-03-31T01:40:11.573Z,56.37
2019-03-31T01:42:41.028Z,56.35
2019-03-31T01:45:10.737Z,56.53
2019-03-31T01:47:40.230Z,56.55
2019-03-31T01:50:14.619Z,56.65
2019-03-31T01:52:44.053Z,56.42
2019-03-31T01:55:13.589Z,56.58
2019-03-31T01:57:43.015Z,56.69
2019-03-31T02:00:14.502Z,56.83
2019-03-31T02:02:43.992Z,56.94
2019-03-31T02:05:13.390Z,57.05
2019-03-31T02:07:42.815Z,57.34
2019-03-31T02:10:12.368Z,57.34
2019-03-31T02:12:41.766Z,57.45
2019-03-31T02:15:11.355Z,57.58
2019-03-31T02:17:40.771Z,57.83
2019-03-31T02:20:10.358Z,58.09
2019-03-31T02:22:39.843Z,58.06
2019-03-31T02:25:09.375Z,58.19
2019-03-31T02:27:38.784Z,58.40
2019-03-31T02:30:08.908Z,58.61
2019-03-31T02:32:38.340Z,58.14
2019-03-31T02:35:08.195Z,57.79
2019-03-31T02:37:37.652Z,57.83
2019-03-31T02:40:08.018Z,57.98
2019-03-31T02:42:37.421Z,58.04
2019-03-31T02:45:08.583Z,58.25
2019-03-31T02:47:37.988Z,58.23
2019-03-31T02:50:07.948Z,58.55
2019-03-31T02:52:37.351Z,58.35
2019-03-31T02:55:07.124Z,58.26
2019-03-31T02:57:36.950Z,58.25
2019-03-31T03:00:07.417Z,58.10
2019-03-31T03:02:42.646Z,58.56
2019-03-31T03:05:19.726Z,58.87
2019-03-31T03:07:44.028Z,59.17
2019-03-31T03:10:13.526Z,59.97
2019-03-31T03:12:44.519Z,60.24
2019-03-31T03:15:16.980Z,60.96
2019-03-31T03:17:46.384Z,61.24
2019-03-31T03:20:15.813Z,61.01
2019-03-31T03:22:45.205Z,60.99
2019-03-31T03:25:14.637Z,60.49
2019-03-31T03:27:44.042Z,60.74
2019-03-31T03:30:13.600Z,60.60
2019-03-31T03:33:12.158Z,60.82
2019-03-31T03:35:15.211Z,60.82
2019-03-31T03:37:44.592Z,60.81
2019-03-31T03:40:14.076Z,60.74
2019-03-31T03:42:43.569Z,60.95
2019-03-31T03:45:13.077Z,60.96
2019-03-31T03:47:42.473Z,61.45
2019-03-31T03:50:12.037Z,61.72
2019-03-31T03:52:41.439Z,61.79
2019-03-31T03:55:10.930Z,61.64
2019-03-31T03:57:40.340Z,61.58
2019-03-31T04:00:10.008Z,61.75
2019-03-31T04:02:39.483Z,61.91
2019-03-31T04:05:09.031Z,61.82
2019-03-31T04:07:38.434Z,61.76
2019-03-31T04:10:42.839Z,62.06
2019-03-31T04:13:12.312Z,62.32
2019-03-31T04:15:42.044Z,62.15
2019-03-31T04:18:11.522Z,62.13
2019-03-31T04:20:40.991Z,62.19
2019-03-31T04:23:10.417Z,62.20
2019-03-31T04:25:39.839Z,61.91
2019-03-31T04:28:09.234Z,61.79
2019-03-31T04:30:38.655Z,61.38
2019-03-31T04:33:08.136Z,61.34
2019-03-31T04:35:37.553Z,61.39
2019-03-31T04:38:06.968Z,61.33
2019-03-31T04:40:36.373Z,61.19
2019-03-31T04:43:05.786Z,61.54
2019-03-31T04:45:35.200Z,61.69
2019-03-31T04:48:04.637Z,61.97
2019-03-31T04:50:34.057Z,62.28
2019-03-31T04:53:03.576Z,62.58
2019-03-31T04:55:32.974Z,62.84
2019-03-31T04:58:02.374Z,63.22
2019-03-31T05:00:31.870Z,62.97
2019-03-31T05:03:01.268Z,63.13
2019-03-31T05:05:30.680Z,62.89
2019-03-31T05:08:00.186Z,63.56
2019-03-31T05:10:29.601Z,63.97
2019-03-31T05:12:59.001Z,64.22
2019-03-31T05:15:28.424Z,64.50
2019-03-31T05:17:57.824Z,64.71
2019-03-31T05:20:27.231Z,64.77
2019-03-31T05:22:56.630Z,64.54
2019-03-31T05:25:26.071Z,64.46
2019-03-31T05:27:55.509Z,64.62
2019-03-31T05:30:25.006Z,64.62
2019-03-31T05:32:54.507Z,64.42
2019-03-31T05:35:26.917Z,64.25
2019-03-31T05:37:55.043Z,64.12
2019-03-31T05:40:24.457Z,64.04
2019-03-31T05:42:53.864Z,64.04
2019-03-31T05:45:23.383Z,63.64
2019-03-31T05:47:52.779Z,63.40
2019-03-31T05:50:22.295Z,63.11
2019-03-31T05:52:51.689Z,62.85
2019-03-31T05:55:21.115Z,62.17
2019-03-31T05:57:50.527Z,61.51
2019-03-31T06:00:31.410Z,60.56
2019-03-31T06:03:00.805Z,59.38
2019-03-31T06:05:30.240Z,58.34
2019-03-31T06:07:59.638Z,57.27
2019-03-31T06:10:29.051Z,56.53
2019-03-31T06:12:58.448Z,55.31
2019-03-31T06:15:27.868Z,54.14
2019-03-31T06:17:57.280Z,53.42
2019-03-31T06:20:26.692Z,52.49
2019-03-31T06:22:56.096Z,51.32
2019-03-31T06:25:25.536Z,49.74
2019-03-31T06:27:54.944Z,48.21
2019-03-31T06:30:24.377Z,47.45
2019-03-31T06:32:55.626Z,45.81
2019-03-31T06:35:25.116Z,42.97
2019-03-31T06:37:54.534Z,40.46
2019-03-31T06:40:24.100Z,38.61
2019-03-31T06:42:53.544Z,37.33
2019-03-31T06:45:22.969Z,35.24
2019-03-31T06:47:57.382Z,34.72
2019-03-31T06:50:26.976Z,33.67
2019-03-31T06:52:56.392Z,31.18
2019-03-31T06:55:25.824Z,29.66
2019-03-31T06:57:55.230Z,28.23
2019-03-31T07:00:24.655Z,26.40
2019-03-31T07:02:54.071Z,25.05
2019-03-31T07:05:24.500Z,24.75
2019-03-31T07:07:53.917Z,24.07
2019-03-31T07:10:23.431Z,22.79
2019-03-31T07:12:52.834Z,21.90
2019-03-31T07:15:22.338Z,21.47
2019-03-31T07:17:51.738Z,21.17
2019-03-31T07:20:21.301Z,19.84
2019-03-31T07:22:50.747Z,17.95
2019-03-31T07:25:20.405Z,18.26
2019-03-31T07:27:49.810Z,17.22
2019-03-31T07:30:21.229Z,17.16
2019-03-31T07:32:50.630Z,17.47
2019-03-31T07:35:20.208Z,17.00
2019-03-31T07:37:49.616Z,16.00
2019-03-31T07:40:21.849Z,14.96
2019-03-31T07:42:51.578Z,15.28
2019-03-31T07:45:21.315Z,15.43
2019-03-31T07:47:50.709Z,15.51
2019-03-31T07:50:20.906Z,15.40
2019-03-31T07:52:50.452Z,15.25
2019-03-31T07:55:20.134Z,15.08
2019-03-31T07:57:49.642Z,15.07
2019-03-31T08:00:21.544Z,14.71
2019-03-31T08:02:51.113Z,14.82
2019-03-31T08:05:32.493Z,14.06
2019-03-31T08:07:51.693Z,13.48
2019-03-31T08:10:21.462Z,13.24
2019-03-31T08:12:50.876Z,13.01
2019-03-31T08:15:20.367Z,12.83
2019-03-31T08:17:49.757Z,12.38
2019-03-31T08:20:19.621Z,12.76
2019-03-31T08:22:49.093Z,12.96
2019-03-31T08:25:18.764Z,12.91
2019-03-31T08:27:48.171Z,13.20
2019-03-31T08:30:18.533Z,13.07
2019-03-31T08:32:47.927Z,13.50
2019-03-31T08:35:17.477Z,13.44
2019-03-31T08:37:46.911Z,13.13
2019-03-31T08:40:16.976Z,12.38
2019-03-31T08:42:46.373Z,12.39
2019-03-31T08:45:15.916Z,12.72
2019-03-31T08:47:45.337Z,11.98
2019-03-31T08:50:15.090Z,10.76
2019-03-31T08:52:44.590Z,10.33
2019-03-31T08:55:14.225Z,10.47
2019-03-31T08:57:43.799Z,10.08
2019-03-31T09:00:19.767Z,9.97
2019-03-31T09:02:49.227Z,9.75
2019-03-31T09:05:18.627Z,8.84
2019-03-31T09:07:48.068Z,9.14
2019-03-31T09:10:17.710Z,9.00
2019-03-31T09:12:48.679Z,9.68
2019-03-31T09:15:18.409Z,9.45
2019-03-31T09:17:47.846Z,9.17
2019-03-31T09:20:17.648Z,7.87
2019-03-31T09:22:47.046Z,7.33
2019-03-31T09:25:16.511Z,7.44
2019-03-31T09:27:45.934Z,7.30
2019-03-31T09:30:16.885Z,7.11
2019-03-31T09:32:46.297Z,7.47
2019-03-31T09:35:16.042Z,7.12
2019-03-31T09:37:45.477Z,7.40
2019-03-31T09:40:15.404Z,6.34
2019-03-31T09:42:44.820Z,6.57
2019-03-31T09:45:14.749Z,5.39
2019-03-31T09:47:44.162Z,5.90
2019-03-31T09:50:17.329Z,5.66
2019-03-31T09:52:46.279Z,5.98
2019-03-31T09:55:15.700Z,5.59
2019-03-31T09:57:45.172Z,5.62
2019-03-31T10:00:25.467Z,5.41
2019-03-31T10:02:54.902Z,5.79
2019-03-31T10:05:24.379Z,4.78
2019-03-31T10:07:53.999Z,4.46
2019-03-31T10:10:31.117Z,4.87
2019-03-31T10:13:01.120Z,5.08
2019-03-31T10:15:30.577Z,4.65
2019-03-31T10:17:59.990Z,4.37
2019-03-31T10:20:31.505Z,4.53
2019-03-31T10:23:00.705Z,3.85
2019-03-31T10:25:30.091Z,4.13
2019-03-31T10:27:59.533Z,3.87
2019-03-31T10:30:39.336Z,4.16
2019-03-31T10:33:09.123Z,3.93
2019-03-31T10:35:38.560Z,3.84
2019-03-31T10:38:08.096Z,3.99
2019-03-31T10:40:37.500Z,3.51
2019-03-31T10:43:06.934Z,3.46
2019-03-31T10:45:36.322Z,3.32
2019-03-31T10:48:19.557Z,3.36
2019-03-31T10:50:37.277Z,3.91
2019-03-31T10:53:06.765Z,4.63
2019-03-31T10:55:36.154Z,6.56
2019-03-31T10:58:05.774Z,6.55
2019-03-31T11:00:37.740Z,5.93
2019-03-31T11:03:08.915Z,5.17
2019-03-31T11:05:38.569Z,4.33
2019-03-31T11:08:08.272Z,4.46
2019-03-31T11:10:37.907Z,4.04
2019-03-31T11:13:07.597Z,3.93
2019-03-31T11:15:37.059Z,3.91
2019-03-31T11:18:06.542Z,3.67
2019-03-31T11:20:35.927Z,3.24
2019-03-31T11:23:07.068Z,3.40
2019-03-31T11:25:36.527Z,3.13
2019-03-31T11:28:05.936Z,3.94
2019-03-31T11:30:35.450Z,5.45
2019-03-31T11:33:07.424Z,6.94
2019-03-31T11:35:35.917Z,8.25
2019-03-31T11:38:05.332Z,9.67
2019-03-31T11:40:34.866Z,10.32
2019-03-31T11:43:04.279Z,11.54
2019-03-31T11:45:33.740Z,10.74
2019-03-31T11:48:03.240Z,8.77
2019-03-31T11:50:32.626Z,7.69
2019-03-31T11:53:02.045Z,6.64
2019-03-31T11:55:31.418Z,6.80
2019-03-31T11:58:00.822Z,8.12
2019-03-31T12:00:31.916Z,9.07
2019-03-31T12:03:01.319Z,9.94
2019-03-31T12:05:30.809Z,10.42
2019-03-31T12:08:00.243Z,10.65
2019-03-31T12:10:29.628Z,11.05
2019-03-31T12:12:59.051Z,10.13
2019-03-31T12:15:28.439Z,8.58
2019-03-31T12:17:57.838Z,7.20
2019-03-31T12:20:27.240Z,6.56
2019-03-31T12:22:56.646Z,6.05
2019-03-31T12:25:26.110Z,6.22
2019-03-31T12:27:55.512Z,6.26
2019-03-31T12:30:28.409Z,5.96
2019-03-31T12:32:58.557Z,6.97
2019-03-31T12:35:27.959Z,8.42
2019-03-31T12:37:57.382Z,8.86
2019-03-31T12:40:34.675Z,8.54
2019-03-31T12:43:04.625Z,9.23
2019-03-31T12:45:34.148Z,10.01
2019-03-31T12:48:03.655Z,10.98
2019-03-31T12:50:33.114Z,11.61
2019-03-31T12:53:02.527Z,11.06
2019-03-31T12:55:31.919Z,11.16
2019-03-31T12:58:01.316Z,11.16
2019-03-31T13:00:30.730Z,11.22
2019-03-31T13:03:00.163Z,10.81
2019-03-31T13:05:29.559Z,10.76
2019-03-31T13:07:58.962Z,11.05
2019-03-31T13:10:28.369Z,12.32
2019-03-31T13:12:57.763Z,11.70
2019-03-31T13:15:27.283Z,12.18
2019-03-31T13:17:57.144Z,12.45
2019-03-31T13:20:26.606Z,12.88
2019-03-31T13:22:56.094Z,12.94
2019-03-31T13:25:25.515Z,13.44
2019-03-31T13:27:54.923Z,14.03
2019-03-31T13:30:24.400Z,14.45
2019-03-31T13:32:53.808Z,14.71
2019-03-31T13:35:23.245Z,15.08
2019-03-31T13:37:52.643Z,15.51
2019-03-31T13:40:22.129Z,16.15
2019-03-31T13:42:51.678Z,16.22
2019-03-31T13:45:21.033Z,16.46
2019-03-31T13:47:50.443Z,16.69
2019-03-31T13:50:19.973Z,17.24
2019-03-31T13:52:49.461Z,17.49
2019-03-31T13:55:18.879Z,16.96
2019-03-31T13:57:49.360Z,16.98
2019-03-31T14:00:25.039Z,17.02
2019-03-31T14:02:53.567Z,16.78
2019-03-31T14:05:23.059Z,17.41
2019-03-31T14:07:52.461Z,17.03
2019-03-31T14:10:21.861Z,16.84
2019-03-31T14:12:51.275Z,16.79
2019-03-31T14:15:20.684Z,17.31
2019-03-31T14:17:50.106Z,17.12
2019-03-31T14:20:19.511Z,17.25
2019-03-31T14:22:48.963Z,17.12
2019-03-31T14:25:18.397Z,16.77
2019-03-31T14:27:47.824Z,16.43
2019-03-31T14:30:17.660Z,16.03
2019-03-31T14:32:47.083Z,15.82
2019-03-31T14:35:16.520Z,16.11
2019-03-31T14:37:46.038Z,15.91
2019-03-31T14:40:15.508Z,16.13
2019-03-31T14:42:44.928Z,16.34
2019-03-31T14:45:29.072Z,16.85
2019-03-31T14:47:59.915Z,16.95
2019-03-31T14:50:32.338Z,17.14
2019-03-31T14:53:01.944Z,17.27
2019-03-31T14:55:31.330Z,17.26
2019-03-31T14:58:00.752Z,17.84
2019-03-31T15:00:30.171Z,18.41
2019-03-31T15:02:59.608Z,18.17
2019-03-31T15:05:29.048Z,18.63
2019-03-31T15:07:58.975Z,18.76
2019-03-31T15:10:28.460Z,18.49
2019-03-31T15:12:57.893Z,19.31
2019-03-31T15:15:27.330Z,19.99
2019-03-31T15:17:56.729Z,20.50
2019-03-31T15:20:26.163Z,20.68
2019-03-31T15:22:55.569Z,21.15
2019-03-31T15:25:24.996Z,21.37
2019-03-31T15:27:54.400Z,21.16
2019-03-31T15:30:24.038Z,21.94
2019-03-31T15:32:53.483Z,21.98
2019-03-31T15:35:22.885Z,22.13
2019-03-31T15:37:52.319Z,22.24
2019-03-31T15:40:21.747Z,22.85
2019-03-31T15:42:51.150Z,22.79
2019-03-31T15:45:20.804Z,22.96
2019-03-31T15:47:50.246Z,22.95
2019-03-31T15:50:19.900Z,23.26
2019-03-31T15:52:49.321Z,23.07
2019-03-31T15:55:18.726Z,23.02
2019-03-31T15:57:48.791Z,22.84
2019-03-31T16:00:18.856Z,22.96
2019-03-31T16:02:48.251Z,22.58
2019-03-31T16:05:17.701Z,22.13
2019-03-31T16:07:47.858Z,22.10
2019-03-31T16:10:17.628Z,22.07
2019-03-31T16:12:47.055Z,22.14
2019-03-31T16:15:16.881Z,22.70
2019-03-31T16:17:46.307Z,23.18
2019-03-31T16:20:16.327Z,22.69
2019-03-31T16:22:45.719Z,22.38
2019-03-31T16:25:29.177Z,22.58
2019-03-31T16:27:58.684Z,21.79
2019-03-31T16:30:28.375Z,21.86
2019-03-31T16:32:57.883Z,22.24
2019-03-31T16:35:27.279Z,23.67
2019-03-31T16:37:56.713Z,24.67
2019-03-31T16:40:26.212Z,24.98
2019-03-31T16:42:55.610Z,25.29
2019-03-31T16:45:25.054Z,24.93
2019-03-31T16:47:54.501Z,25.50
2019-03-31T16:50:23.930Z,25.88
2019-03-31T16:52:53.348Z,26.08
2019-03-31T16:55:22.782Z,26.10
2019-03-31T16:57:52.181Z,26.45
2019-03-31T17:00:21.814Z,26.59
2019-03-31T17:02:51.280Z,26.87
2019-03-31T17:05:22.550Z,27.33
2019-03-31T17:07:52.082Z,27.52
2019-03-31T17:10:21.511Z,27.28
2019-03-31T17:12:50.916Z,27.53
2019-03-31T17:15:20.361Z,27.61
2019-03-31T17:17:49.785Z,27.67
2019-03-31T17:20:19.370Z,27.76
2019-03-31T17:22:48.896Z,28.09
2019-03-31T17:25:18.376Z,27.97
2019-03-31T17:27:47.796Z,28.23
2019-03-31T17:30:17.558Z,28.28
2019-03-31T17:32:46.956Z,28.30
2019-03-31T17:35:16.464Z,28.77
2019-03-31T17:37:45.908Z,29.18
2019-03-31T17:40:16.423Z,29.20
2019-03-31T17:42:45.856Z,29.38
2019-03-31T17:45:17.337Z,29.69
2019-03-31T17:47:46.630Z,29.82
2019-03-31T17:50:16.144Z,29.87
2019-03-31T17:52:47.075Z,30.36
2019-03-31T17:55:17.218Z,30.73
2019-03-31T17:57:46.626Z,30.82
2019-03-31T18:00:16.346Z,31.25
2019-03-31T18:02:45.775Z,31.79
2019-03-31T18:05:15.252Z,31.68
2019-03-31T18:07:44.687Z,31.91
2019-03-31T18:10:20.639Z,32.05
2019-03-31T18:12:45.392Z,31.97
2019-03-31T18:15:14.874Z,32.22
2019-03-31T18:17:44.659Z,32.40
2019-03-31T18:20:14.205Z,34.14
2019-03-31T18:22:43.769Z,35.20
2019-03-31T18:25:13.282Z,36.05
2019-03-31T18:27:42.701Z,37.30
2019-03-31T18:30:12.482Z,38.30
2019-03-31T18:32:41.881Z,38.73
2019-03-31T18:35:11.681Z,38.88
2019-03-31T18:37:41.195Z,39.18
2019-03-31T18:40:10.844Z,39.65
2019-03-31T18:42:40.657Z,39.90
2019-03-31T18:45:10.430Z,40.31
2019-03-31T18:47:39.980Z,40.82
2019-03-31T18:50:09.746Z,41.11
2019-03-31T18:52:39.160Z,41.71
2019-03-31T18:55:10.561Z,41.75
2019-03-31T18:57:44.595Z,42.07
2019-03-31T19:00:16.146Z,42.44
2019-03-31T19:02:49.898Z,42.78
2019-03-31T19:05:33.299Z,43.09
2019-03-31T19:08:04.353Z,43.33
2019-03-31T19:10:51.684Z,43.93
2019-03-31T19:13:28.743Z,44.22
2019-03-31T19:16:05.816Z,44.59
2019-03-31T19:18:36.866Z,44.94
2019-03-31T19:21:10.944Z,45.33
2019-03-31T19:23:40.709Z,45.81
2019-03-31T19:26:23.920Z,45.80
2019-03-31T19:29:03.834Z,46.18
2019-03-31T19:31:34.886Z,46.23
2019-03-31T19:34:06.080Z,46.68
2019-03-31T19:36:39.859Z,47.03
2019-03-31T19:39:26.571Z,47.05
2019-03-31T19:42:00.776Z,47.23
2019-03-31T19:44:40.458Z,47.77
2019-03-31T19:47:14.261Z,47.93
2019-03-31T19:49:45.331Z,47.80
2019-03-31T19:52:32.154Z,48.06
2019-03-31T19:55:19.468Z,48.14
2019-03-31T19:57:50.627Z,48.89
2019-03-31T20:00:31.029Z,48.86
2019-03-31T20:03:02.115Z,49.20
2019-03-31T20:05:33.221Z,49.33
2019-03-31T20:08:06.808Z,49.79
2019-03-31T20:10:46.497Z,50.07
2019-03-31T20:13:17.557Z,50.18
2019-03-31T20:15:51.450Z,50.34
2019-03-31T20:18:25.619Z,50.53
2019-03-31T20:20:56.674Z,50.39
2019-03-31T20:23:27.743Z,50.57
2019-03-31T20:26:01.829Z,50.40
2019-03-31T20:28:49.318Z,50.29
2019-03-31T20:31:38.445Z,50.52
2019-03-31T20:34:27.422Z,50.60
2019-03-31T20:37:16.581Z,51.08
2019-03-31T20:39:56.444Z,51.03
2019-03-31T20:42:23.305Z,51.61
2019-03-31T20:44:52.739Z,51.65
2019-03-31T20:47:22.193Z,51.82
2019-03-31T20:49:51.764Z,52.25
2019-03-31T20:52:21.297Z,52.48
2019-03-31T20:54:50.786Z,52.69
2019-03-31T20:57:20.143Z,52.86
2019-03-31T20:59:49.738Z,52.95
2019-03-31T21:02:19.278Z,53.03
2019-03-31T21:04:49.253Z,53.44
2019-03-31T21:07:18.706Z,53.54
2019-03-31T21:09:48.105Z,53.76
2019-03-31T21:12:17.527Z,53.70
2019-03-31T21:14:47.014Z,53.71
2019-03-31T21:17:16.443Z,54.07
2019-03-31T21:19:45.881Z,54.04
2019-03-31T21:22:15.325Z,54.40
2019-03-31T21:24:46.197Z,54.66
2019-03-31T21:27:15.549Z,54.43
2019-03-31T21:29:45.050Z,54.79
2019-03-31T21:32:14.631Z,55.04
2019-03-31T21:34:44.035Z,54.98
2019-03-31T21:37:15.130Z,54.78
2019-03-31T21:39:44.720Z,55.20
2019-03-31T21:42:14.159Z,55.09
2019-03-31T21:44:43.596Z,55.17
2019-03-31T21:47:13.000Z,55.21
2019-03-31T21:49:42.419Z,55.43
2019-03-31T21:52:11.832Z,55.78
2019-03-31T21:54:41.252Z,55.72
2019-03-31T21:57:10.676Z,56.01
2019-03-31T21:59:40.111Z,55.88
2019-03-31T22:02:09.597Z,56.07
2019-03-31T22:04:39.029Z,56.29
2019-03-31T22:07:08.428Z,56.26
2019-03-31T22:09:37.862Z,56.55
2019-03-31T22:12:07.266Z,56.30
2019-03-31T22:14:36.694Z,56.52
2019-03-31T22:17:06.107Z,56.82
2019-03-31T22:19:35.535Z,56.78
2019-03-31T22:22:04.944Z,56.63
2019-03-31T22:24:34.372Z,56.84
2019-03-31T22:27:03.776Z,57.23
2019-03-31T22:29:33.193Z,57.49
2019-03-31T22:32:02.613Z,57.45
2019-03-31T22:34:32.035Z,57.68
2019-03-31T22:37:01.506Z,57.79
2019-03-31T22:39:30.935Z,57.69
2019-03-31T22:42:00.348Z,57.78
2019-03-31T22:44:29.767Z,58.19
2019-03-31T22:46:59.185Z,58.01
2019-03-31T22:49:28.740Z,58.21
2019-03-31T22:51:58.229Z,58.17
2019-03-31T22:54:27.643Z,58.27
2019-03-31T22:56:57.051Z,58.52
2019-03-31T22:59:26.471Z,58.91
2019-03-31T23:01:55.954Z,58.85
2019-03-31T23:04:25.463Z,58.62
2019-03-31T23:06:54.881Z,58.53
2019-03-31T23:09:24.373Z,58.48
2019-03-31T23:11:53.903Z,58.50
2019-03-31T23:14:23.289Z,58.76
2019-03-31T23:16:52.690Z,59.11
2019-03-31T23:19:22.138Z,59.16
2019-03-31T23:21:51.555Z,59.10
2019-03-31T23:24:20.975Z,59.04
2019-03-31T23:26:50.480Z,59.42
2019-03-31T23:29:19.919Z,59.54
2019-03-31T23:31:49.327Z,59.68
2019-03-31T23:34:18.715Z,59.40
2019-03-31T23:36:48.126Z,59.45
2019-03-31T23:39:17.574Z,59.80
2019-03-31T23:41:46.993Z,59.94
2019-03-31T23:44:16.421Z,59.65
2019-03-31T23:46:45.826Z,59.27
2019-03-31T23:49:15.251Z,59.62
2019-03-31T23:51:44.660Z,59.79
2019-03-31T23:54:14.088Z,59.63
2019-03-31T23:56:43.520Z,59.81
2019-03-31T23:59:12.934Z,59.58
